sensor_id;sensor_type;location;lat;lon;timestamp;P1;durP1;ratioP1;P2;durP2;ratioP2
46290;SDS011;32023;44.444;26.006;2022-07-22T00:03:31;8.15;;;3.00;;
46290;SDS011;32023;44.444;26.006;2022-07-22T00:06:00;8.93;;;3.00;;
46290;SDS011;32023;44.444;26.006;2022-07-22T00:08:30;11.48;;;3.17;;
46290;SDS011;32023;44.444;26.006;2022-07-22T00:10:57;9.73;;;3.15;;
46290;SDS011;32023;44.444;26.006;2022-07-22T00:13:32;10.40;;;3.25;;
46290;SDS011;32023;44.444;26.006;2022-07-22T00:15:59;13.32;;;3.53;;
46290;SDS011;32023;44.444;26.006;2022-07-22T00:18:26;11.55;;;3.35;;
46290;SDS011;32023;44.444;26.006;2022-07-22T00:20:54;9.77;;;3.00;;
46290;SDS011;32023;44.444;26.006;2022-07-22T00:23:24;6.65;;;2.80;;
46290;SDS011;32023;44.444;26.006;2022-07-22T00:25:51;8.10;;;2.72;;
46290;SDS011;32023;44.444;26.006;2022-07-22T00:28:19;16.92;;;3.42;;
46290;SDS011;32023;44.444;26.006;2022-07-22T00:30:57;9.23;;;2.78;;
46290;SDS011;32023;44.444;26.006;2022-07-22T00:33:24;13.52;;;2.90;;
46290;SDS011;32023;44.444;26.006;2022-07-22T00:35:50;15.07;;;2.80;;
46290;SDS011;32023;44.444;26.006;2022-07-22T00:38:27;7.80;;;3.30;;
46290;SDS011;32023;44.444;26.006;2022-07-22T00:40:57;12.00;;;3.17;;
46290;SDS011;32023;44.444;26.006;2022-07-22T00:43:23;10.05;;;2.80;;
46290;SDS011;32023;44.444;26.006;2022-07-22T00:46:16;8.07;;;3.17;;
46290;SDS011;32023;44.444;26.006;2022-07-22T00:48:43;8.35;;;3.17;;
46290;SDS011;32023;44.444;26.006;2022-07-22T00:51:09;8.32;;;3.00;;
46290;SDS011;32023;44.444;26.006;2022-07-22T00:53:38;11.07;;;3.15;;
46290;SDS011;32023;44.444;26.006;2022-07-22T00:56:09;8.60;;;3.05;;
46290;SDS011;32023;44.444;26.006;2022-07-22T00:58:38;7.00;;;2.60;;
46290;SDS011;32023;44.444;26.006;2022-07-22T01:01:04;7.82;;;2.80;;
46290;SDS011;32023;44.444;26.006;2022-07-22T01:03:31;13.05;;;3.17;;
46290;SDS011;32023;44.444;26.006;2022-07-22T01:05:59;6.55;;;2.78;;
46290;SDS011;32023;44.444;26.006;2022-07-22T01:08:28;16.02;;;3.17;;
46290;SDS011;32023;44.444;26.006;2022-07-22T01:11:12;18.52;;;3.13;;
46290;SDS011;32023;44.444;26.006;2022-07-22T01:13:53;12.90;;;3.58;;
46290;SDS011;32023;44.444;26.006;2022-07-22T01:16:24;10.43;;;2.63;;
46290;SDS011;32023;44.444;26.006;2022-07-22T01:18:50;8.20;;;2.90;;
46290;SDS011;32023;44.444;26.006;2022-07-22T01:21:17;8.88;;;3.28;;
46290;SDS011;32023;44.444;26.006;2022-07-22T01:23:46;9.80;;;3.13;;
46290;SDS011;32023;44.444;26.006;2022-07-22T01:26:13;10.45;;;3.38;;
46290;SDS011;32023;44.444;26.006;2022-07-22T01:28:43;8.95;;;3.05;;
46290;SDS011;32023;44.444;26.006;2022-07-22T01:34:25;8.57;;;2.92;;
46290;SDS011;32023;44.444;26.006;2022-07-22T01:36:51;13.63;;;3.33;;
46290;SDS011;32023;44.444;26.006;2022-07-22T01:39:20;7.55;;;3.33;;
46290;SDS011;32023;44.444;26.006;2022-07-22T01:44:43;10.65;;;3.00;;
46290;SDS011;32023;44.444;26.006;2022-07-22T01:47:12;4.10;;;2.60;;
46290;SDS011;32023;44.444;26.006;2022-07-22T01:49:42;9.30;;;3.03;;
46290;SDS011;32023;44.444;26.006;2022-07-22T01:52:08;10.07;;;3.15;;
46290;SDS011;32023;44.444;26.006;2022-07-22T01:54:35;16.98;;;2.92;;
46290;SDS011;32023;44.444;26.006;2022-07-22T01:57:01;7.57;;;3.28;;
46290;SDS011;32023;44.444;26.006;2022-07-22T01:59:35;8.90;;;3.38;;
46290;SDS011;32023;44.444;26.006;2022-07-22T02:02:02;9.85;;;3.13;;
46290;SDS011;32023;44.444;26.006;2022-07-22T02:04:30;7.82;;;3.35;;
46290;SDS011;32023;44.444;26.006;2022-07-22T02:07:00;11.63;;;2.92;;
46290;SDS011;32023;44.444;26.006;2022-07-22T02:09:29;9.25;;;3.45;;
46290;SDS011;32023;44.444;26.006;2022-07-22T02:11:55;10.25;;;3.28;;
46290;SDS011;32023;44.444;26.006;2022-07-22T02:14:30;12.55;;;3.55;;
46290;SDS011;32023;44.444;26.006;2022-07-22T02:17:02;10.77;;;2.85;;
46290;SDS011;32023;44.444;26.006;2022-07-22T02:19:28;7.65;;;2.75;;
46290;SDS011;32023;44.444;26.006;2022-07-22T02:21:54;11.77;;;2.78;;
46290;SDS011;32023;44.444;26.006;2022-07-22T02:24:23;12.40;;;2.80;;
46290;SDS011;32023;44.444;26.006;2022-07-22T02:26:53;9.45;;;2.42;;
46290;SDS011;32023;44.444;26.006;2022-07-22T02:29:21;6.13;;;2.38;;
46290;SDS011;32023;44.444;26.006;2022-07-22T02:31:51;9.27;;;2.97;;
46290;SDS011;32023;44.444;26.006;2022-07-22T02:34:17;10.32;;;2.50;;
46290;SDS011;32023;44.444;26.006;2022-07-22T02:36:44;7.28;;;2.40;;
46290;SDS011;32023;44.444;26.006;2022-07-22T02:39:10;7.63;;;2.78;;
46290;SDS011;32023;44.444;26.006;2022-07-22T02:41:37;7.70;;;2.25;;
46290;SDS011;32023;44.444;26.006;2022-07-22T02:44:03;14.02;;;3.25;;
46290;SDS011;32023;44.444;26.006;2022-07-22T02:46:30;12.45;;;2.47;;
46290;SDS011;32023;44.444;26.006;2022-07-22T02:48:57;9.35;;;2.45;;
46290;SDS011;32023;44.444;26.006;2022-07-22T02:51:27;8.10;;;2.40;;
46290;SDS011;32023;44.444;26.006;2022-07-22T02:53:53;5.63;;;2.17;;
46290;SDS011;32023;44.444;26.006;2022-07-22T02:56:20;10.15;;;2.67;;
46290;SDS011;32023;44.444;26.006;2022-07-22T02:58:49;5.90;;;2.58;;
46290;SDS011;32023;44.444;26.006;2022-07-22T03:01:18;15.40;;;3.42;;
46290;SDS011;32023;44.444;26.006;2022-07-22T03:04:00;15.05;;;2.45;;
46290;SDS011;32023;44.444;26.006;2022-07-22T03:06:26;9.75;;;2.40;;
46290;SDS011;32023;44.444;26.006;2022-07-22T03:11:23;11.95;;;3.20;;
46290;SDS011;32023;44.444;26.006;2022-07-22T03:13:49;14.15;;;3.00;;
46290;SDS011;32023;44.444;26.006;2022-07-22T03:16:16;11.82;;;2.83;;
46290;SDS011;32023;44.444;26.006;2022-07-22T03:18:42;10.50;;;2.80;;
46290;SDS011;32023;44.444;26.006;2022-07-22T03:21:09;12.55;;;2.75;;
46290;SDS011;32023;44.444;26.006;2022-07-22T03:23:35;9.60;;;3.05;;
46290;SDS011;32023;44.444;26.006;2022-07-22T03:26:02;10.80;;;2.83;;
46290;SDS011;32023;44.444;26.006;2022-07-22T03:28:28;11.30;;;3.58;;
46290;SDS011;32023;44.444;26.006;2022-07-22T03:30:57;15.57;;;3.10;;
46290;SDS011;32023;44.444;26.006;2022-07-22T03:33:23;14.52;;;2.70;;
46290;SDS011;32023;44.444;26.006;2022-07-22T03:35:50;14.63;;;2.65;;
46290;SDS011;32023;44.444;26.006;2022-07-22T03:38:16;6.47;;;2.60;;
46290;SDS011;32023;44.444;26.006;2022-07-22T03:40:42;9.80;;;2.85;;
46290;SDS011;32023;44.444;26.006;2022-07-22T03:43:12;8.07;;;2.97;;
46290;SDS011;32023;44.444;26.006;2022-07-22T03:45:38;9.93;;;2.97;;
46290;SDS011;32023;44.444;26.006;2022-07-22T03:48:05;8.07;;;3.20;;
46290;SDS011;32023;44.444;26.006;2022-07-22T03:50:33;12.50;;;3.42;;
46290;SDS011;32023;44.444;26.006;2022-07-22T03:53:00;13.35;;;2.92;;
46290;SDS011;32023;44.444;26.006;2022-07-22T03:55:31;21.52;;;3.13;;
46290;SDS011;32023;44.444;26.006;2022-07-22T03:58:00;19.17;;;3.08;;
46290;SDS011;32023;44.444;26.006;2022-07-22T04:00:27;15.52;;;3.08;;
46290;SDS011;32023;44.444;26.006;2022-07-22T04:02:59;9.68;;;3.03;;
46290;SDS011;32023;44.444;26.006;2022-07-22T04:23:11;15.27;;;2.78;;
46290;SDS011;32023;44.444;26.006;2022-07-22T04:25:49;11.13;;;3.22;;
46290;SDS011;32023;44.444;26.006;2022-07-22T04:42:19;11.07;;;2.97;;
46290;SDS011;32023;44.444;26.006;2022-07-22T04:45:37;6.15;;;2.83;;
46290;SDS011;32023;44.444;26.006;2022-07-22T04:48:19;9.13;;;2.70;;
46290;SDS011;32023;44.444;26.006;2022-07-22T04:54:09;12.38;;;2.90;;
46290;SDS011;32023;44.444;26.006;2022-07-22T04:57:08;14.07;;;2.75;;
46290;SDS011;32023;44.444;26.006;2022-07-22T04:59:46;9.10;;;2.40;;
46290;SDS011;32023;44.444;26.006;2022-07-22T05:02:13;8.35;;;2.47;;
46290;SDS011;32023;44.444;26.006;2022-07-22T05:04:53;12.77;;;3.00;;
46290;SDS011;32023;44.444;26.006;2022-07-22T05:10:00;6.80;;;2.50;;
46290;SDS011;32023;44.444;26.006;2022-07-22T05:12:35;7.50;;;2.08;;
46290;SDS011;32023;44.444;26.006;2022-07-22T05:15:16;4.55;;;1.67;;
46290;SDS011;32023;44.444;26.006;2022-07-22T05:17:47;12.27;;;1.63;;
46290;SDS011;32023;44.444;26.006;2022-07-22T05:20:16;7.32;;;1.27;;
46290;SDS011;32023;44.444;26.006;2022-07-22T05:23:06;5.28;;;1.80;;
46290;SDS011;32023;44.444;26.006;2022-07-22T05:25:42;4.93;;;1.95;;
46290;SDS011;32023;44.444;26.006;2022-07-22T05:28:17;3.65;;;1.35;;
46290;SDS011;32023;44.444;26.006;2022-07-22T05:30:44;12.23;;;1.85;;
46290;SDS011;32023;44.444;26.006;2022-07-22T05:35:51;6.45;;;1.92;;
46290;SDS011;32023;44.444;26.006;2022-07-22T05:38:33;15.80;;;2.28;;
46290;SDS011;32023;44.444;26.006;2022-07-22T05:41:33;12.05;;;1.88;;
46290;SDS011;32023;44.444;26.006;2022-07-22T05:44:05;7.65;;;1.77;;
46290;SDS011;32023;44.444;26.006;2022-07-22T05:46:34;7.70;;;1.27;;
46290;SDS011;32023;44.444;26.006;2022-07-22T05:49:01;19.13;;;1.70;;
46290;SDS011;32023;44.444;26.006;2022-07-22T05:51:30;6.72;;;1.50;;
46290;SDS011;32023;44.444;26.006;2022-07-22T05:53:59;4.78;;;1.40;;
46290;SDS011;32023;44.444;26.006;2022-07-22T05:56:42;8.33;;;1.37;;
46290;SDS011;32023;44.444;26.006;2022-07-22T05:59:11;4.88;;;1.17;;
46290;SDS011;32023;44.444;26.006;2022-07-22T06:01:44;4.32;;;1.40;;
46290;SDS011;32023;44.444;26.006;2022-07-22T06:07:14;6.72;;;1.30;;
46290;SDS011;32023;44.444;26.006;2022-07-22T06:09:41;6.53;;;1.60;;
46290;SDS011;32023;44.444;26.006;2022-07-22T06:12:07;4.03;;;1.30;;
46290;SDS011;32023;44.444;26.006;2022-07-22T06:14:34;7.03;;;1.70;;
46290;SDS011;32023;44.444;26.006;2022-07-22T06:17:13;5.72;;;1.27;;
46290;SDS011;32023;44.444;26.006;2022-07-22T06:19:43;13.93;;;1.35;;
46290;SDS011;32023;44.444;26.006;2022-07-22T06:22:11;5.05;;;1.30;;
46290;SDS011;32023;44.444;26.006;2022-07-22T06:24:41;3.67;;;1.10;;
46290;SDS011;32023;44.444;26.006;2022-07-22T06:27:07;7.38;;;1.70;;
46290;SDS011;32023;44.444;26.006;2022-07-22T06:29:43;6.47;;;1.20;;
46290;SDS011;32023;44.444;26.006;2022-07-22T06:32:09;5.38;;;1.33;;
46290;SDS011;32023;44.444;26.006;2022-07-22T06:34:38;4.28;;;1.10;;
46290;SDS011;32023;44.444;26.006;2022-07-22T06:37:04;7.40;;;1.40;;
46290;SDS011;32023;44.444;26.006;2022-07-22T06:39:34;8.73;;;1.30;;
46290;SDS011;32023;44.444;26.006;2022-07-22T06:42:13;7.50;;;1.17;;
46290;SDS011;32023;44.444;26.006;2022-07-22T06:44:47;4.63;;;1.00;;
46290;SDS011;32023;44.444;26.006;2022-07-22T06:47:27;6.63;;;1.27;;
46290;SDS011;32023;44.444;26.006;2022-07-22T06:50:03;7.80;;;1.45;;
46290;SDS011;32023;44.444;26.006;2022-07-22T06:55:46;4.93;;;1.23;;
46290;SDS011;32023;44.444;26.006;2022-07-22T07:01:10;9.32;;;1.42;;
46290;SDS011;32023;44.444;26.006;2022-07-22T07:03:39;4.03;;;1.85;;
46290;SDS011;32023;44.444;26.006;2022-07-22T07:09:18;6.38;;;1.27;;
46290;SDS011;32023;44.444;26.006;2022-07-22T07:11:45;10.10;;;1.77;;
46290;SDS011;32023;44.444;26.006;2022-07-22T07:14:21;7.18;;;1.40;;
46290;SDS011;32023;44.444;26.006;2022-07-22T07:19:47;3.20;;;1.30;;
46290;SDS011;32023;44.444;26.006;2022-07-22T07:22:20;5.72;;;1.20;;
46290;SDS011;32023;44.444;26.006;2022-07-22T07:24:55;6.15;;;1.60;;
46290;SDS011;32023;44.444;26.006;2022-07-22T07:27:22;5.95;;;1.25;;
46290;SDS011;32023;44.444;26.006;2022-07-22T07:29:51;4.07;;;1.58;;
46290;SDS011;32023;44.444;26.006;2022-07-22T07:32:20;8.13;;;1.63;;
46290;SDS011;32023;44.444;26.006;2022-07-22T07:34:56;9.27;;;1.70;;
46290;SDS011;32023;44.444;26.006;2022-07-22T07:37:28;6.07;;;1.20;;
46290;SDS011;32023;44.444;26.006;2022-07-22T07:40:15;4.78;;;1.20;;
46290;SDS011;32023;44.444;26.006;2022-07-22T07:43:32;3.08;;;1.02;;
46290;SDS011;32023;44.444;26.006;2022-07-22T07:48:34;8.20;;;1.50;;
46290;SDS011;32023;44.444;26.006;2022-07-22T07:51:03;1.98;;;1.10;;
46290;SDS011;32023;44.444;26.006;2022-07-22T07:53:30;5.93;;;1.35;;
46290;SDS011;32023;44.444;26.006;2022-07-22T07:55:57;4.15;;;1.30;;
46290;SDS011;32023;44.444;26.006;2022-07-22T07:58:26;2.28;;;1.40;;
46290;SDS011;32023;44.444;26.006;2022-07-22T08:01:12;1.45;;;0.90;;
46290;SDS011;32023;44.444;26.006;2022-07-22T08:03:51;14.52;;;1.88;;
46290;SDS011;32023;44.444;26.006;2022-07-22T08:06:40;4.38;;;1.30;;
46290;SDS011;32023;44.444;26.006;2022-07-22T08:09:06;8.73;;;1.45;;
46290;SDS011;32023;44.444;26.006;2022-07-22T08:12:02;5.05;;;1.10;;
46290;SDS011;32023;44.444;26.006;2022-07-22T08:14:42;3.47;;;1.20;;
46290;SDS011;32023;44.444;26.006;2022-07-22T08:17:20;4.85;;;1.50;;
46290;SDS011;32023;44.444;26.006;2022-07-22T08:22:52;7.85;;;1.20;;
46290;SDS011;32023;44.444;26.006;2022-07-22T08:25:21;4.68;;;1.13;;
46290;SDS011;32023;44.444;26.006;2022-07-22T08:28:13;2.85;;;1.35;;
46290;SDS011;32023;44.444;26.006;2022-07-22T08:30:55;3.15;;;1.02;;
46290;SDS011;32023;44.444;26.006;2022-07-22T08:33:24;7.80;;;1.75;;
46290;SDS011;32023;44.444;26.006;2022-07-22T08:35:59;5.80;;;1.40;;
46290;SDS011;32023;44.444;26.006;2022-07-22T08:38:55;6.43;;;1.23;;
46290;SDS011;32023;44.444;26.006;2022-07-22T08:44:52;4.05;;;1.20;;
46290;SDS011;32023;44.444;26.006;2022-07-22T08:47:24;4.75;;;1.33;;
46290;SDS011;32023;44.444;26.006;2022-07-22T08:50:06;7.78;;;1.20;;
46290;SDS011;32023;44.444;26.006;2022-07-22T08:52:45;2.00;;;1.10;;
46290;SDS011;32023;44.444;26.006;2022-07-22T08:55:19;8.38;;;1.27;;
46290;SDS011;32023;44.444;26.006;2022-07-22T08:57:56;14.82;;;2.00;;
46290;SDS011;32023;44.444;26.006;2022-07-22T09:00:27;5.85;;;1.58;;
46290;SDS011;32023;44.444;26.006;2022-07-22T09:02:56;3.58;;;1.50;;
46290;SDS011;32023;44.444;26.006;2022-07-22T09:05:56;2.40;;;1.10;;
46290;SDS011;32023;44.444;26.006;2022-07-22T09:08:32;2.72;;;1.65;;
46290;SDS011;32023;44.444;26.006;2022-07-22T09:11:29;2.30;;;1.20;;
46290;SDS011;32023;44.444;26.006;2022-07-22T09:14:03;3.28;;;1.30;;
46290;SDS011;32023;44.444;26.006;2022-07-22T09:16:42;7.60;;;1.63;;
46290;SDS011;32023;44.444;26.006;2022-07-22T09:19:14;3.15;;;1.23;;
46290;SDS011;32023;44.444;26.006;2022-07-22T09:21:51;2.17;;;1.45;;
46290;SDS011;32023;44.444;26.006;2022-07-22T09:31:02;3.75;;;1.48;;
46290;SDS011;32023;44.444;26.006;2022-07-22T09:33:51;3.70;;;1.13;;
46290;SDS011;32023;44.444;26.006;2022-07-22T09:37:00;3.55;;;1.65;;
46290;SDS011;32023;44.444;26.006;2022-07-22T09:39:40;4.68;;;1.85;;
46290;SDS011;32023;44.444;26.006;2022-07-22T09:45:19;4.88;;;1.42;;
46290;SDS011;32023;44.444;26.006;2022-07-22T09:47:53;2.45;;;1.33;;
46290;SDS011;32023;44.444;26.006;2022-07-22T09:50:30;9.02;;;1.55;;
46290;SDS011;32023;44.444;26.006;2022-07-22T09:53:03;3.83;;;1.77;;
46290;SDS011;32023;44.444;26.006;2022-07-22T09:55:32;4.95;;;1.60;;
46290;SDS011;32023;44.444;26.006;2022-07-22T09:58:17;3.20;;;1.20;;
46290;SDS011;32023;44.444;26.006;2022-07-22T10:00:56;2.03;;;1.25;;
46290;SDS011;32023;44.444;26.006;2022-07-22T10:04:04;6.85;;;1.70;;
46290;SDS011;32023;44.444;26.006;2022-07-22T10:06:47;5.60;;;1.65;;
46290;SDS011;32023;44.444;26.006;2022-07-22T10:09:34;7.32;;;1.95;;
46290;SDS011;32023;44.444;26.006;2022-07-22T10:12:20;8.32;;;1.83;;
46290;SDS011;32023;44.444;26.006;2022-07-22T10:18:33;4.40;;;1.70;;
46290;SDS011;32023;44.444;26.006;2022-07-22T10:21:15;3.47;;;1.30;;
46290;SDS011;32023;44.444;26.006;2022-07-22T10:26:55;3.85;;;1.70;;
46290;SDS011;32023;44.444;26.006;2022-07-22T10:29:30;13.32;;;2.00;;
46290;SDS011;32023;44.444;26.006;2022-07-22T10:40:09;7.63;;;1.92;;
46290;SDS011;32023;44.444;26.006;2022-07-22T10:48:24;2.55;;;1.40;;
46290;SDS011;32023;44.444;26.006;2022-07-22T10:51:09;3.03;;;1.67;;
46290;SDS011;32023;44.444;26.006;2022-07-22T10:56:33;4.97;;;1.90;;
46290;SDS011;32023;44.444;26.006;2022-07-22T11:01:37;5.50;;;1.83;;
46290;SDS011;32023;44.444;26.006;2022-07-22T11:04:17;17.77;;;1.80;;
46290;SDS011;32023;44.444;26.006;2022-07-22T11:12:48;1.92;;;1.30;;
46290;SDS011;32023;44.444;26.006;2022-07-22T11:18:54;2.70;;;1.50;;
46290;SDS011;32023;44.444;26.006;2022-07-22T11:21:33;4.03;;;1.35;;
46290;SDS011;32023;44.444;26.006;2022-07-22T11:24:11;7.03;;;1.55;;
46290;SDS011;32023;44.444;26.006;2022-07-22T11:27:21;6.32;;;1.75;;
46290;SDS011;32023;44.444;26.006;2022-07-22T11:29:57;7.35;;;1.50;;
46290;SDS011;32023;44.444;26.006;2022-07-22T11:32:26;7.20;;;1.73;;
46290;SDS011;32023;44.444;26.006;2022-07-22T11:35:10;5.60;;;1.75;;
46290;SDS011;32023;44.444;26.006;2022-07-22T11:37:44;4.28;;;1.98;;
46290;SDS011;32023;44.444;26.006;2022-07-22T11:52:18;10.45;;;1.92;;
46290;SDS011;32023;44.444;26.006;2022-07-22T12:25:04;4.18;;;1.83;;
46290;SDS011;32023;44.444;26.006;2022-07-22T12:31:16;5.75;;;2.03;;
46290;SDS011;32023;44.444;26.006;2022-07-22T12:34:05;7.05;;;1.77;;
46290;SDS011;32023;44.444;26.006;2022-07-22T12:43:39;3.40;;;2.13;;
46290;SDS011;32023;44.444;26.006;2022-07-22T12:56:24;6.95;;;2.15;;
46290;SDS011;32023;44.444;26.006;2022-07-22T12:59:09;4.95;;;1.92;;
46290;SDS011;32023;44.444;26.006;2022-07-22T13:08:37;7.28;;;2.05;;
46290;SDS011;32023;44.444;26.006;2022-07-22T13:11:04;4.97;;;2.00;;
46290;SDS011;32023;44.444;26.006;2022-07-22T13:13:43;6.72;;;1.80;;
46290;SDS011;32023;44.444;26.006;2022-07-22T13:19:39;9.30;;;3.05;;
46290;SDS011;32023;44.444;26.006;2022-07-22T13:22:30;9.45;;;2.47;;
46290;SDS011;32023;44.444;26.006;2022-07-22T13:35:16;8.27;;;2.10;;
46290;SDS011;32023;44.444;26.006;2022-07-22T13:47:23;4.78;;;1.80;;
46290;SDS011;32023;44.444;26.006;2022-07-22T13:53:34;5.15;;;1.77;;
46290;SDS011;32023;44.444;26.006;2022-07-22T13:56:27;6.95;;;1.92;;
46290;SDS011;32023;44.444;26.006;2022-07-22T13:59:02;4.88;;;2.00;;
46290;SDS011;32023;44.444;26.006;2022-07-22T14:08:12;5.28;;;2.10;;
46290;SDS011;32023;44.444;26.006;2022-07-22T14:16:28;9.40;;;2.22;;
46290;SDS011;32023;44.444;26.006;2022-07-22T14:19:05;10.20;;;2.08;;
46290;SDS011;32023;44.444;26.006;2022-07-22T14:25:03;6.47;;;1.90;;
46290;SDS011;32023;44.444;26.006;2022-07-22T14:28:08;9.82;;;2.05;;
46290;SDS011;32023;44.444;26.006;2022-07-22T14:59:41;5.03;;;1.88;;
46290;SDS011;32023;44.444;26.006;2022-07-22T15:10:35;7.60;;;2.40;;
46290;SDS011;32023;44.444;26.006;2022-07-22T15:15:47;10.40;;;2.35;;
46290;SDS011;32023;44.444;26.006;2022-07-22T15:33:53;9.98;;;2.10;;
46290;SDS011;32023;44.444;26.006;2022-07-22T16:03:22;7.35;;;2.10;;
46290;SDS011;32023;44.444;26.006;2022-07-22T16:10:18;6.13;;;2.20;;
46290;SDS011;32023;44.444;26.006;2022-07-22T16:16:04;4.55;;;1.70;;
46290;SDS011;32023;44.444;26.006;2022-07-22T16:28:30;7.03;;;2.00;;
46290;SDS011;32023;44.444;26.006;2022-07-22T16:31:18;6.43;;;1.75;;
46290;SDS011;32023;44.444;26.006;2022-07-22T16:33:52;6.95;;;2.00;;
46290;SDS011;32023;44.444;26.006;2022-07-22T16:36:24;8.50;;;1.90;;
46290;SDS011;32023;44.444;26.006;2022-07-22T16:39:16;15.05;;;2.20;;
46290;SDS011;32023;44.444;26.006;2022-07-22T16:41:46;8.30;;;1.73;;
46290;SDS011;32023;44.444;26.006;2022-07-22T16:44:15;12.13;;;2.17;;
46290;SDS011;32023;44.444;26.006;2022-07-22T16:46:41;9.38;;;1.70;;
46290;SDS011;32023;44.444;26.006;2022-07-22T16:49:10;6.85;;;1.65;;
46290;SDS011;32023;44.444;26.006;2022-07-22T16:51:40;6.43;;;2.03;;
46290;SDS011;32023;44.444;26.006;2022-07-22T16:54:09;8.07;;;1.92;;
46290;SDS011;32023;44.444;26.006;2022-07-22T16:56:36;7.68;;;2.25;;
46290;SDS011;32023;44.444;26.006;2022-07-22T16:59:05;6.03;;;2.05;;
46290;SDS011;32023;44.444;26.006;2022-07-22T17:01:53;9.63;;;2.45;;
46290;SDS011;32023;44.444;26.006;2022-07-22T17:04:27;9.88;;;2.10;;
46290;SDS011;32023;44.444;26.006;2022-07-22T17:06:57;8.70;;;2.10;;
46290;SDS011;32023;44.444;26.006;2022-07-22T17:12:23;7.60;;;2.10;;
46290;SDS011;32023;44.444;26.006;2022-07-22T17:14:49;11.88;;;2.95;;
46290;SDS011;32023;44.444;26.006;2022-07-22T17:17:18;7.03;;;2.10;;
46290;SDS011;32023;44.444;26.006;2022-07-22T17:20:05;9.85;;;2.47;;
46290;SDS011;32023;44.444;26.006;2022-07-22T17:32:16;5.60;;;1.95;;
46290;SDS011;32023;44.444;26.006;2022-07-22T17:34:59;8.52;;;2.40;;
46290;SDS011;32023;44.444;26.006;2022-07-22T17:37:37;10.68;;;2.42;;
46290;SDS011;32023;44.444;26.006;2022-07-22T17:40:14;6.93;;;2.05;;
46290;SDS011;32023;44.444;26.006;2022-07-22T17:42:50;4.95;;;2.17;;
46290;SDS011;32023;44.444;26.006;2022-07-22T17:45:17;6.68;;;2.10;;
46290;SDS011;32023;44.444;26.006;2022-07-22T17:47:43;8.43;;;2.22;;
46290;SDS011;32023;44.444;26.006;2022-07-22T17:50:12;9.80;;;2.75;;
46290;SDS011;32023;44.444;26.006;2022-07-22T17:52:38;17.27;;;2.65;;
46290;SDS011;32023;44.444;26.006;2022-07-22T17:55:06;12.02;;;2.88;;
46290;SDS011;32023;44.444;26.006;2022-07-22T17:57:35;8.18;;;1.92;;
46290;SDS011;32023;44.444;26.006;2022-07-22T18:00:03;11.02;;;2.17;;
46290;SDS011;32023;44.444;26.006;2022-07-22T18:02:30;9.60;;;2.50;;
46290;SDS011;32023;44.444;26.006;2022-07-22T18:04:57;7.25;;;2.40;;
46290;SDS011;32023;44.444;26.006;2022-07-22T18:07:26;7.60;;;2.60;;
46290;SDS011;32023;44.444;26.006;2022-07-22T18:09:53;11.70;;;2.88;;
46290;SDS011;32023;44.444;26.006;2022-07-22T18:12:25;15.05;;;2.95;;
46290;SDS011;32023;44.444;26.006;2022-07-22T18:17:18;11.65;;;2.53;;
46290;SDS011;32023;44.444;26.006;2022-07-22T18:19:45;8.20;;;2.65;;
46290;SDS011;32023;44.444;26.006;2022-07-22T18:22:11;14.43;;;3.60;;
46290;SDS011;32023;44.444;26.006;2022-07-22T18:24:38;14.60;;;2.47;;
46290;SDS011;32023;44.444;26.006;2022-07-22T18:27:10;11.38;;;3.15;;
46290;SDS011;32023;44.444;26.006;2022-07-22T18:29:36;11.18;;;2.67;;
46290;SDS011;32023;44.444;26.006;2022-07-22T18:32:03;12.40;;;3.25;;
46290;SDS011;32023;44.444;26.006;2022-07-22T18:34:33;12.80;;;2.92;;
46290;SDS011;32023;44.444;26.006;2022-07-22T18:36:59;11.02;;;3.00;;
46290;SDS011;32023;44.444;26.006;2022-07-22T18:39:28;13.32;;;3.47;;
46290;SDS011;32023;44.444;26.006;2022-07-22T18:41:55;15.18;;;3.10;;
46290;SDS011;32023;44.444;26.006;2022-07-22T18:44:29;14.57;;;3.90;;
46290;SDS011;32023;44.444;26.006;2022-07-22T18:46:59;8.80;;;2.72;;
46290;SDS011;32023;44.444;26.006;2022-07-22T18:49:29;24.80;;;3.72;;
46290;SDS011;32023;44.444;26.006;2022-07-22T18:52:24;19.38;;;3.65;;
46290;SDS011;32023;44.444;26.006;2022-07-22T18:54:59;12.48;;;3.40;;
46290;SDS011;32023;44.444;26.006;2022-07-22T18:57:28;16.05;;;3.72;;
46290;SDS011;32023;44.444;26.006;2022-07-22T19:00:34;16.65;;;3.80;;
46290;SDS011;32023;44.444;26.006;2022-07-22T19:03:12;11.65;;;4.13;;
46290;SDS011;32023;44.444;26.006;2022-07-22T19:08:22;10.48;;;4.25;;
46290;SDS011;32023;44.444;26.006;2022-07-22T19:10:59;18.88;;;4.40;;
46290;SDS011;32023;44.444;26.006;2022-07-22T19:13:37;16.42;;;4.68;;
46290;SDS011;32023;44.444;26.006;2022-07-22T19:16:34;17.05;;;4.28;;
46290;SDS011;32023;44.444;26.006;2022-07-22T19:19:17;11.27;;;3.42;;
46290;SDS011;32023;44.444;26.006;2022-07-22T19:22:07;11.88;;;3.83;;
46290;SDS011;32023;44.444;26.006;2022-07-22T19:27:41;11.57;;;4.47;;
46290;SDS011;32023;44.444;26.006;2022-07-22T19:33:19;18.15;;;6.32;;
46290;SDS011;32023;44.444;26.006;2022-07-22T19:36:01;13.23;;;5.93;;
46290;SDS011;32023;44.444;26.006;2022-07-22T19:38:34;20.23;;;5.90;;
46290;SDS011;32023;44.444;26.006;2022-07-22T19:41:04;16.30;;;5.35;;
46290;SDS011;32023;44.444;26.006;2022-07-22T19:43:32;16.58;;;5.18;;
46290;SDS011;32023;44.444;26.006;2022-07-22T19:46:47;13.73;;;4.78;;
46290;SDS011;32023;44.444;26.006;2022-07-22T19:49:23;13.15;;;4.55;;
46290;SDS011;32023;44.444;26.006;2022-07-22T19:51:58;16.55;;;4.85;;
46290;SDS011;32023;44.444;26.006;2022-07-22T19:54:28;9.77;;;4.47;;
46290;SDS011;32023;44.444;26.006;2022-07-22T19:56:55;18.02;;;5.18;;
46290;SDS011;32023;44.444;26.006;2022-07-22T19:59:31;12.35;;;4.05;;
46290;SDS011;32023;44.444;26.006;2022-07-22T20:02:04;6.32;;;3.33;;
46290;SDS011;32023;44.444;26.006;2022-07-22T20:04:35;14.48;;;3.40;;
46290;SDS011;32023;44.444;26.006;2022-07-22T20:07:08;12.48;;;3.85;;
46290;SDS011;32023;44.444;26.006;2022-07-22T20:09:42;9.55;;;3.75;;
46290;SDS011;32023;44.444;26.006;2022-07-22T20:12:16;12.50;;;4.00;;
46290;SDS011;32023;44.444;26.006;2022-07-22T20:14:46;15.35;;;4.55;;
46290;SDS011;32023;44.444;26.006;2022-07-22T20:17:14;8.80;;;2.85;;
46290;SDS011;32023;44.444;26.006;2022-07-22T20:19:44;13.57;;;3.22;;
46290;SDS011;32023;44.444;26.006;2022-07-22T20:22:12;9.90;;;3.45;;
46290;SDS011;32023;44.444;26.006;2022-07-22T20:24:39;12.05;;;3.28;;
46290;SDS011;32023;44.444;26.006;2022-07-22T20:27:05;13.82;;;3.33;;
46290;SDS011;32023;44.444;26.006;2022-07-22T20:29:32;10.60;;;3.40;;
46290;SDS011;32023;44.444;26.006;2022-07-22T20:31:58;8.88;;;3.40;;
46290;SDS011;32023;44.444;26.006;2022-07-22T21:07:35;14.60;;;3.95;;
46290;SDS011;32023;44.444;26.006;2022-07-22T21:16:19;23.80;;;6.63;;
46290;SDS011;32023;44.444;26.006;2022-07-22T21:18:51;18.08;;;6.63;;
46290;SDS011;32023;44.444;26.006;2022-07-22T21:21:18;14.32;;;5.80;;
46290;SDS011;32023;44.444;26.006;2022-07-22T21:23:50;13.38;;;5.68;;
46290;SDS011;32023;44.444;26.006;2022-07-22T21:26:17;16.45;;;6.30;;
46290;SDS011;32023;44.444;26.006;2022-07-22T21:28:52;18.60;;;6.30;;
46290;SDS011;32023;44.444;26.006;2022-07-22T21:31:22;15.82;;;6.50;;
46290;SDS011;32023;44.444;26.006;2022-07-22T21:33:52;15.75;;;6.00;;
46290;SDS011;32023;44.444;26.006;2022-07-22T21:36:18;20.00;;;6.78;;
46290;SDS011;32023;44.444;26.006;2022-07-22T21:38:47;15.48;;;6.25;;
46290;SDS011;32023;44.444;26.006;2022-07-22T21:41:17;10.75;;;5.88;;
46290;SDS011;32023;44.444;26.006;2022-07-22T21:43:52;13.00;;;5.93;;